createdAt,value
2019-01-29T00:01:33.801Z,1.60
2019-01-29T00:04:02.839Z,1.50
2019-01-29T00:06:31.813Z,1.50
2019-01-29T00:09:00.734Z,1.60
2019-01-29T00:11:29.699Z,1.50
2019-01-29T00:13:58.633Z,1.60
2019-01-29T00:16:27.692Z,1.50
2019-01-29T00:18:56.622Z,1.60
2019-01-29T00:21:25.565Z,1.50
2019-01-29T00:23:54.665Z,1.50
2019-01-29T00:26:23.605Z,1.60
2019-01-29T00:28:52.507Z,1.50
2019-01-29T00:31:21.447Z,1.50
2019-01-29T00:33:57.695Z,1.60
2019-01-29T00:36:26.656Z,1.50
2019-01-29T00:38:55.655Z,1.50
2019-01-29T00:41:24.632Z,1.50
2019-01-29T00:43:53.649Z,1.50
2019-01-29T00:46:22.991Z,1.50
2019-01-29T00:48:51.975Z,1.50
2019-01-29T00:51:20.939Z,1.60
2019-01-29T00:53:49.855Z,1.60
2019-01-29T00:56:19.028Z,1.60
2019-01-29T00:58:47.981Z,1.60
2019-01-29T01:01:17.232Z,1.50
2019-01-29T01:03:46.305Z,1.60
2019-01-29T01:06:15.680Z,1.60
2019-01-29T01:08:44.685Z,1.50
2019-01-29T01:11:13.694Z,1.30
2019-01-29T01:13:42.624Z,1.30
2019-01-29T01:16:11.635Z,1.20
2019-01-29T01:18:40.675Z,1.20
2019-01-29T01:21:15.660Z,1.10
2019-01-29T01:23:44.684Z,1.00
2019-01-29T01:26:13.665Z,1.10
2019-01-29T01:28:42.596Z,1.20
2019-01-29T01:31:11.543Z,1.10
2019-01-29T01:33:40.465Z,1.20
2019-01-29T01:36:09.474Z,1.10
2019-01-29T01:38:38.470Z,1.10
2019-01-29T01:41:07.523Z,1.20
2019-01-29T01:43:36.508Z,1.20
2019-01-29T01:46:05.509Z,1.10
2019-01-29T01:48:34.571Z,1.10
2019-01-29T01:51:03.613Z,1.10
2019-01-29T01:53:32.579Z,1.20
2019-01-29T01:56:01.483Z,1.20
2019-01-29T01:58:30.491Z,1.20
2019-01-29T02:00:59.495Z,1.10
2019-01-29T02:03:28.429Z,1.20
2019-01-29T02:05:57.463Z,1.20
2019-01-29T02:08:26.464Z,1.30
2019-01-29T02:10:55.951Z,1.30
2019-01-29T02:13:24.902Z,1.30
2019-01-29T02:15:53.935Z,1.30
2019-01-29T02:18:22.895Z,1.30
2019-01-29T02:20:51.929Z,1.30
2019-01-29T02:23:23.198Z,1.40
2019-01-29T02:25:52.100Z,1.40
2019-01-29T02:28:21.015Z,1.50
2019-01-29T02:30:49.957Z,1.60
2019-01-29T02:33:18.924Z,1.60
2019-01-29T02:35:47.844Z,1.60
2019-01-29T02:38:16.790Z,1.60
2019-01-29T02:40:45.728Z,1.60
2019-01-29T02:43:14.703Z,1.50
2019-01-29T02:45:43.640Z,1.50
2019-01-29T02:48:12.594Z,1.60
2019-01-29T02:50:41.524Z,1.60
2019-01-29T02:53:18.151Z,1.60
2019-01-29T02:55:41.118Z,1.60
2019-01-29T02:58:10.135Z,1.70
2019-01-29T03:00:39.043Z,1.70
2019-01-29T03:03:08.079Z,1.70
2019-01-29T03:05:37.215Z,1.70
2019-01-29T03:08:06.264Z,1.60
2019-01-29T03:10:35.264Z,1.70
2019-01-29T03:13:04.621Z,1.80
2019-01-29T03:15:33.748Z,1.80
2019-01-29T03:18:02.794Z,1.90
2019-01-29T03:20:31.867Z,1.90
2019-01-29T03:23:00.937Z,1.90
2019-01-29T03:25:29.927Z,1.80
2019-01-29T03:27:58.929Z,1.80
2019-01-29T03:30:28.035Z,1.80
2019-01-29T03:32:56.956Z,1.80
2019-01-29T03:35:26.024Z,1.70
2019-01-29T03:37:54.946Z,1.70
2019-01-29T03:40:26.534Z,1.70
2019-01-29T03:42:55.676Z,1.80
2019-01-29T03:45:25.035Z,1.80
2019-01-29T03:47:54.040Z,1.70
2019-01-29T03:50:23.385Z,1.80
2019-01-29T03:52:52.707Z,1.80
2019-01-29T03:55:21.771Z,1.80
2019-01-29T03:57:50.861Z,1.80
2019-01-29T04:00:25.060Z,1.90
2019-01-29T04:02:54.142Z,1.90
2019-01-29T04:05:23.194Z,2.00
2019-01-29T04:07:52.279Z,2.00
2019-01-29T04:10:21.450Z,2.00
2019-01-29T04:12:50.599Z,2.10
2019-01-29T04:15:20.307Z,2.00
2019-01-29T04:17:50.838Z,1.90
2019-01-29T04:20:20.728Z,1.80
2019-01-29T04:22:49.695Z,1.70
2019-01-29T04:25:18.953Z,1.60
2019-01-29T04:27:47.868Z,1.60
2019-01-29T04:30:18.535Z,1.60
2019-01-29T04:32:47.514Z,1.50
2019-01-29T04:35:16.584Z,1.50
2019-01-29T04:37:45.642Z,1.60
2019-01-29T04:40:16.475Z,1.60
2019-01-29T04:42:45.488Z,1.60
2019-01-29T04:45:15.373Z,1.50
2019-01-29T04:47:44.481Z,1.40
2019-01-29T04:50:18.787Z,1.40
2019-01-29T04:52:47.824Z,1.30
2019-01-29T04:55:17.026Z,1.20
2019-01-29T04:57:46.131Z,1.10
2019-01-29T05:00:20.884Z,1.10
2019-01-29T05:02:49.985Z,1.10
2019-01-29T05:05:19.848Z,1.10
2019-01-29T05:07:49.091Z,1.10
2019-01-29T05:10:18.289Z,1.10
2019-01-29T05:12:47.287Z,1.10
2019-01-29T05:15:17.146Z,1.10
2019-01-29T05:17:46.191Z,1.20
2019-01-29T05:20:20.197Z,1.10
2019-01-29T05:22:49.348Z,1.10
2019-01-29T05:25:18.711Z,1.00
2019-01-29T05:27:47.765Z,1.10
2019-01-29T05:30:21.625Z,1.10
2019-01-29T05:32:50.687Z,1.10
2019-01-29T05:35:19.672Z,1.20
2019-01-29T05:37:48.600Z,1.30
2019-01-29T05:40:18.846Z,1.30
2019-01-29T05:42:48.043Z,1.30
2019-01-29T05:45:18.478Z,1.30
2019-01-29T05:47:47.479Z,1.40
2019-01-29T05:50:16.779Z,1.50
2019-01-29T05:52:45.846Z,1.50
2019-01-29T05:55:15.483Z,1.50
2019-01-29T05:57:44.632Z,1.50
2019-01-29T06:00:21.835Z,1.60
2019-01-29T06:02:50.995Z,1.70
2019-01-29T06:05:20.098Z,1.60
2019-01-29T06:07:49.074Z,1.70
2019-01-29T06:10:18.178Z,1.70
2019-01-29T06:12:47.156Z,1.60
2019-01-29T06:15:17.542Z,1.60
2019-01-29T06:17:46.624Z,1.60
2019-01-29T06:20:20.729Z,1.60
2019-01-29T06:22:49.808Z,1.60
2019-01-29T06:25:18.818Z,1.60
2019-01-29T06:27:48.044Z,1.60
2019-01-29T06:30:18.194Z,1.60
2019-01-29T06:32:47.272Z,1.50
2019-01-29T06:35:17.116Z,1.60
2019-01-29T06:37:46.287Z,1.60
2019-01-29T06:40:21.304Z,1.60
2019-01-29T06:42:51.263Z,1.60
2019-01-29T06:45:21.016Z,1.60
2019-01-29T06:47:50.516Z,1.60
2019-01-29T06:50:21.577Z,1.50
2019-01-29T06:52:50.645Z,1.50
2019-01-29T06:55:20.547Z,1.50
2019-01-29T06:57:55.196Z,1.40
2019-01-29T07:00:22.725Z,1.50
2019-01-29T07:02:51.835Z,1.50
2019-01-29T07:05:20.859Z,1.60
2019-01-29T07:07:49.871Z,1.70
2019-01-29T07:10:19.450Z,1.60
2019-01-29T07:12:48.557Z,1.50
2019-01-29T07:15:37.574Z,1.50
2019-01-29T07:18:16.134Z,1.40
2019-01-29T07:20:45.166Z,1.40
2019-01-29T07:23:14.146Z,1.30
2019-01-29T07:25:43.059Z,1.30
2019-01-29T07:28:13.360Z,1.30
2019-01-29T07:30:42.839Z,1.20
2019-01-29T07:33:11.911Z,1.30
2019-01-29T07:35:40.859Z,1.30
2019-01-29T07:38:09.783Z,1.40
2019-01-29T07:40:38.823Z,1.50
2019-01-29T07:43:11.032Z,1.60
2019-01-29T07:45:40.100Z,1.60
2019-01-29T07:48:09.084Z,1.70
2019-01-29T07:50:38.001Z,1.80
2019-01-29T07:53:07.085Z,1.90
2019-01-29T07:55:36.229Z,1.90
2019-01-29T07:58:05.649Z,1.90
2019-01-29T08:00:34.951Z,1.80
2019-01-29T08:03:06.349Z,1.80
2019-01-29T08:05:35.578Z,1.90
2019-01-29T08:08:04.953Z,1.90
2019-01-29T08:10:33.876Z,1.90
2019-01-29T08:13:02.835Z,1.90
2019-01-29T08:15:32.148Z,1.90
2019-01-29T08:18:01.138Z,2.00
2019-01-29T08:20:30.528Z,2.10
2019-01-29T08:22:59.748Z,2.10
2019-01-29T08:25:29.283Z,2.10
2019-01-29T08:27:58.231Z,2.10
2019-01-29T08:30:27.367Z,2.10
2019-01-29T08:32:56.279Z,2.10
2019-01-29T08:35:25.283Z,2.20
2019-01-29T08:37:54.232Z,2.20
2019-01-29T08:40:23.141Z,2.30
2019-01-29T08:42:52.056Z,2.30
2019-01-29T08:45:21.339Z,2.40
2019-01-29T08:47:50.341Z,2.40
2019-01-29T08:50:21.170Z,2.50
2019-01-29T08:52:50.200Z,2.60
2019-01-29T08:55:19.567Z,2.60
2019-01-29T08:57:48.643Z,2.60
2019-01-29T09:00:17.795Z,2.50
2019-01-29T09:02:47.966Z,2.70
2019-01-29T09:05:17.760Z,2.70
2019-01-29T09:07:46.770Z,2.80
2019-01-29T09:10:16.419Z,2.70
2019-01-29T09:12:45.423Z,2.60
2019-01-29T09:15:15.777Z,2.60
2019-01-29T09:17:44.977Z,2.50
2019-01-29T09:20:15.119Z,2.50
2019-01-29T09:22:44.194Z,2.60
2019-01-29T09:25:19.548Z,2.60
2019-01-29T09:27:44.489Z,2.70
2019-01-29T09:30:15.332Z,2.70
2019-01-29T09:32:45.004Z,2.70
2019-01-29T09:35:14.305Z,2.80
2019-01-29T09:37:43.391Z,2.80
2019-01-29T09:40:17.435Z,2.90
2019-01-29T09:42:46.543Z,2.90
2019-01-29T09:45:17.492Z,2.90
2019-01-29T09:47:46.803Z,2.90
2019-01-29T09:50:18.567Z,3.00
2019-01-29T09:52:47.771Z,3.00
2019-01-29T09:55:17.966Z,3.20
2019-01-29T09:57:46.947Z,3.20
2019-01-29T10:00:25.180Z,3.30
2019-01-29T10:02:54.216Z,3.40
2019-01-29T10:05:23.300Z,3.70
2019-01-29T10:07:52.337Z,3.90
2019-01-29T10:10:21.255Z,4.00
2019-01-29T10:12:50.311Z,4.00
2019-01-29T10:15:22.833Z,3.90
2019-01-29T10:17:52.320Z,3.70
2019-01-29T10:20:21.543Z,3.60
2019-01-29T10:22:50.643Z,3.50
2019-01-29T10:25:19.853Z,3.50
2019-01-29T10:27:48.784Z,3.60
2019-01-29T10:30:18.336Z,3.60
2019-01-29T10:32:47.596Z,3.40
2019-01-29T10:35:17.917Z,3.60
2019-01-29T10:37:47.012Z,3.60
2019-01-29T10:40:18.213Z,3.80
2019-01-29T10:42:47.361Z,4.10
2019-01-29T10:45:17.667Z,4.00
2019-01-29T10:47:46.786Z,4.10
2019-01-29T10:50:18.638Z,3.80
2019-01-29T10:52:48.853Z,4.00
2019-01-29T10:55:18.020Z,3.80
2019-01-29T10:57:47.257Z,3.90
2019-01-29T11:00:37.337Z,3.90
2019-01-29T11:03:07.488Z,4.00
2019-01-29T11:05:36.602Z,3.90
2019-01-29T11:08:06.433Z,3.80
2019-01-29T11:10:35.543Z,3.60
2019-01-29T11:13:04.907Z,3.60
2019-01-29T11:15:36.077Z,3.50
2019-01-29T11:18:08.955Z,3.40
2019-01-29T11:20:38.400Z,3.40
2019-01-29T11:23:07.514Z,3.50
2019-01-29T11:25:36.670Z,3.50
2019-01-29T11:28:05.959Z,3.60
2019-01-29T11:30:35.524Z,3.60
2019-01-29T11:33:05.044Z,3.70
2019-01-29T11:35:33.955Z,3.80
2019-01-29T11:38:25.525Z,3.90
2019-01-29T11:40:57.395Z,4.20
2019-01-29T11:43:26.399Z,4.50
2019-01-29T11:45:55.653Z,4.40
2019-01-29T11:48:24.826Z,4.30
2019-01-29T11:50:53.932Z,4.30
2019-01-29T11:53:22.953Z,4.30
2019-01-29T11:55:51.932Z,4.40
2019-01-29T11:59:01.438Z,4.40
2019-01-29T12:01:30.453Z,4.40
2019-01-29T12:03:59.473Z,4.10
2019-01-29T12:06:28.489Z,4.30
2019-01-29T12:09:26.155Z,4.50
2019-01-29T12:11:55.094Z,4.70
2019-01-29T12:14:24.107Z,4.70
2019-01-29T12:16:53.360Z,4.70
2019-01-29T12:19:24.227Z,4.60
2019-01-29T12:21:53.287Z,4.60
2019-01-29T12:24:22.323Z,4.60
2019-01-29T12:26:51.434Z,4.50
2019-01-29T12:29:20.483Z,4.50
2019-01-29T12:31:49.672Z,4.30
2019-01-29T12:34:18.637Z,4.20
2019-01-29T12:36:47.635Z,4.30
2019-01-29T12:39:16.614Z,4.20
2019-01-29T12:41:45.582Z,4.20
2019-01-29T12:44:14.686Z,4.30
2019-01-29T12:46:43.662Z,4.20
2019-01-29T12:49:12.576Z,4.20
2019-01-29T12:51:49.138Z,4.10
2019-01-29T12:54:18.223Z,4.10
2019-01-29T12:56:47.211Z,4.10
2019-01-29T12:59:16.124Z,4.10
2019-01-29T13:01:45.069Z,4.20
2019-01-29T13:04:13.996Z,4.20
2019-01-29T13:06:42.904Z,4.40
2019-01-29T13:09:12.046Z,4.30
2019-01-29T13:11:40.976Z,4.40
2019-01-29T13:14:09.895Z,4.50
2019-01-29T13:16:38.926Z,4.60
2019-01-29T13:19:08.148Z,4.70
2019-01-29T13:21:37.120Z,4.70
2019-01-29T13:24:06.221Z,4.50
2019-01-29T13:26:35.229Z,4.70
2019-01-29T13:29:06.344Z,4.60
2019-01-29T13:31:35.280Z,4.70
2019-01-29T13:34:04.406Z,4.60
2019-01-29T13:36:33.384Z,4.50
2019-01-29T13:39:02.382Z,4.50
2019-01-29T13:41:31.452Z,4.70
2019-01-29T13:44:00.337Z,4.50
2019-01-29T13:46:30.253Z,4.50
2019-01-29T13:48:59.251Z,4.50
2019-01-29T13:51:28.177Z,4.70
2019-01-29T13:53:57.089Z,4.70
2019-01-29T13:56:26.116Z,4.50
2019-01-29T13:58:55.131Z,4.40
2019-01-29T14:01:24.035Z,4.40
2019-01-29T14:03:53.063Z,4.50
2019-01-29T14:06:21.964Z,4.50
2019-01-29T14:08:51.007Z,4.50
2019-01-29T14:11:20.004Z,4.40
2019-01-29T14:13:48.932Z,4.30
2019-01-29T14:16:18.048Z,4.40
2019-01-29T14:18:48.758Z,4.40
2019-01-29T14:21:17.682Z,4.40
2019-01-29T14:23:49.112Z,4.30
2019-01-29T14:26:18.111Z,4.30
2019-01-29T14:28:47.035Z,4.30
2019-01-29T14:31:16.556Z,4.40
2019-01-29T14:33:45.557Z,4.40
2019-01-29T14:36:16.850Z,4.20
2019-01-29T14:39:14.813Z,4.30
2019-01-29T14:41:43.763Z,4.50
2019-01-29T14:44:39.195Z,4.40
2019-01-29T14:47:08.351Z,4.40
2019-01-29T14:49:37.335Z,4.40
2019-01-29T14:52:06.337Z,4.40
2019-01-29T14:54:35.352Z,4.50
2019-01-29T14:57:04.428Z,4.40
2019-01-29T14:59:33.344Z,4.30
2019-01-29T15:02:02.332Z,4.20
2019-01-29T15:04:31.260Z,4.10
2019-01-29T15:07:00.196Z,4.10
2019-01-29T15:09:29.128Z,4.00
2019-01-29T15:11:58.105Z,4.00
2019-01-29T15:14:27.041Z,4.00
2019-01-29T15:17:13.062Z,3.90
2019-01-29T15:19:42.061Z,3.90
2019-01-29T15:22:11.156Z,3.80
2019-01-29T15:24:40.123Z,3.70
2019-01-29T15:27:09.128Z,3.70
2019-01-29T15:29:38.064Z,3.60
2019-01-29T15:32:07.053Z,3.40
2019-01-29T15:34:35.988Z,3.30
2019-01-29T15:37:05.234Z,3.20
2019-01-29T15:39:34.159Z,3.00
2019-01-29T15:42:03.162Z,2.80
2019-01-29T15:44:32.229Z,2.60
2019-01-29T15:47:01.215Z,2.50
2019-01-29T15:49:30.151Z,2.40
2019-01-29T15:51:59.103Z,2.30
2019-01-29T15:54:28.066Z,2.20
2019-01-29T15:56:57.057Z,2.10
2019-01-29T15:59:26.066Z,2.00
2019-01-29T16:01:55.061Z,2.10
2019-01-29T16:04:24.016Z,1.90
2019-01-29T16:06:53.009Z,1.80
2019-01-29T16:09:22.040Z,1.80
2019-01-29T16:11:51.025Z,1.70
2019-01-29T16:14:19.996Z,1.70
2019-01-29T16:16:49.060Z,1.50
2019-01-29T16:19:18.184Z,1.50
2019-01-29T16:21:47.120Z,1.40
2019-01-29T16:24:16.065Z,1.40
2019-01-29T16:26:44.999Z,1.30
2019-01-29T16:29:14.051Z,1.30
2019-01-29T16:31:43.155Z,1.40
2019-01-29T16:34:12.083Z,1.40
2019-01-29T16:36:41.051Z,1.60
2019-01-29T16:39:10.688Z,1.70
2019-01-29T16:41:39.624Z,1.60
2019-01-29T16:44:08.604Z,1.70
2019-01-29T16:46:37.768Z,1.70
2019-01-29T16:49:06.824Z,1.70
2019-01-29T16:51:42.203Z,1.70
2019-01-29T16:54:06.629Z,1.80
2019-01-29T16:56:35.577Z,1.80
2019-01-29T16:59:04.667Z,1.80
2019-01-29T17:01:33.714Z,1.90
2019-01-29T17:04:02.650Z,1.90
2019-01-29T17:06:31.595Z,1.90
2019-01-29T17:09:00.590Z,2.00
2019-01-29T17:11:29.859Z,2.00
2019-01-29T17:13:58.854Z,2.00
2019-01-29T17:16:27.964Z,1.90
2019-01-29T17:18:57.056Z,1.90
2019-01-29T17:21:26.189Z,1.80
2019-01-29T17:23:55.146Z,1.70
2019-01-29T17:26:24.075Z,1.50
2019-01-29T17:28:53.045Z,1.40
2019-01-29T17:31:21.987Z,1.30
2019-01-29T17:33:50.951Z,1.10
2019-01-29T17:36:20.455Z,1.00
2019-01-29T17:38:49.397Z,0.90
2019-01-29T17:41:18.369Z,0.80
2019-01-29T17:43:47.379Z,0.80
2019-01-29T17:46:16.415Z,0.70
2019-01-29T17:48:45.387Z,0.80
2019-01-29T17:51:14.302Z,1.10
2019-01-29T17:53:43.289Z,1.10
2019-01-29T17:56:12.298Z,1.30
2019-01-29T17:58:41.211Z,1.30
2019-01-29T18:01:10.261Z,1.40
2019-01-29T18:03:39.224Z,1.40
2019-01-29T18:06:08.251Z,1.50
2019-01-29T18:08:37.263Z,1.60
2019-01-29T18:11:06.221Z,1.70
2019-01-29T18:13:35.156Z,1.70
2019-01-29T18:16:04.208Z,1.80
2019-01-29T18:18:33.275Z,1.90
2019-01-29T18:21:02.330Z,1.90
2019-01-29T18:23:31.388Z,1.70
2019-01-29T18:26:00.450Z,1.60
2019-01-29T18:28:29.405Z,1.40
2019-01-29T18:30:58.429Z,1.30
2019-01-29T18:33:27.424Z,1.20
2019-01-29T18:35:56.410Z,1.00
2019-01-29T18:38:25.967Z,0.80
2019-01-29T18:40:56.561Z,0.70
2019-01-29T18:43:25.581Z,0.70
2019-01-29T18:45:54.726Z,0.60
2019-01-29T18:48:23.639Z,0.60
2019-01-29T18:50:52.606Z,0.50
2019-01-29T18:53:21.812Z,0.40
2019-01-29T18:55:50.789Z,0.50
2019-01-29T18:58:19.768Z,0.40
2019-01-29T19:00:54.645Z,0.40
2019-01-29T19:03:21.734Z,0.40
2019-01-29T19:05:50.782Z,0.40
2019-01-29T19:08:19.858Z,0.40
2019-01-29T19:10:49.142Z,0.30
2019-01-29T19:13:18.192Z,0.40
2019-01-29T19:15:47.389Z,0.30
2019-01-29T19:18:16.845Z,0.20
2019-01-29T19:20:46.003Z,0.10
2019-01-29T19:23:14.978Z,0.00
2019-01-29T19:25:44.081Z,0.10
2019-01-29T19:28:21.760Z,0.30
2019-01-29T19:30:43.789Z,0.30
2019-01-29T19:33:12.860Z,0.20
2019-01-29T19:35:41.920Z,0.10
2019-01-29T19:38:10.995Z,0.30
2019-01-29T19:40:40.553Z,0.40
2019-01-29T19:43:09.704Z,0.20
2019-01-29T19:45:38.892Z,0.10
2019-01-29T19:48:08.512Z,0.10
2019-01-29T19:50:37.725Z,0.20
2019-01-29T19:53:06.813Z,0.20
2019-01-29T19:55:35.863Z,0.30
2019-01-29T19:58:09.065Z,0.20
2019-01-29T20:00:38.448Z,0.10
2019-01-29T20:03:07.717Z,0.00
2019-01-29T20:05:36.816Z,0.00
2019-01-29T20:08:06.090Z,0.00
2019-01-29T20:10:35.224Z,-0.10
2019-01-29T20:13:04.625Z,-0.20
2019-01-29T20:15:33.839Z,-0.30
2019-01-29T20:18:02.875Z,-0.30
2019-01-29T20:20:34.712Z,-0.30
2019-01-29T20:23:07.930Z,-0.40
2019-01-29T20:25:34.824Z,-0.50
2019-01-29T20:28:04.234Z,-0.50
2019-01-29T20:30:35.173Z,-0.50
2019-01-29T20:33:05.304Z,-0.40
2019-01-29T20:35:34.619Z,-0.40
2019-01-29T20:38:04.511Z,-0.40
2019-01-29T20:40:33.540Z,-0.40
2019-01-29T20:43:02.663Z,-0.40
2019-01-29T20:45:31.758Z,-0.40
2019-01-29T20:48:03.944Z,-0.40
2019-01-29T20:50:34.699Z,-0.50
2019-01-29T20:53:06.082Z,-0.50
2019-01-29T20:55:35.277Z,-0.60
2019-01-29T20:58:04.630Z,-0.60
2019-01-29T21:00:36.066Z,-0.70
2019-01-29T21:03:05.428Z,-0.80
2019-01-29T21:05:34.579Z,-0.70
2019-01-29T21:08:03.764Z,-0.90
2019-01-29T21:10:32.810Z,-0.70
2019-01-29T21:13:01.744Z,-0.80
2019-01-29T21:15:37.998Z,-0.80
2019-01-29T21:18:01.632Z,-0.70
2019-01-29T21:20:31.506Z,-0.80
2019-01-29T21:23:00.806Z,-0.80
2019-01-29T21:25:29.868Z,-0.80
2019-01-29T21:27:58.814Z,-0.80
2019-01-29T21:30:32.702Z,-0.90
2019-01-29T21:33:01.767Z,-1.00
2019-01-29T21:35:30.874Z,-1.00
2019-01-29T21:37:59.817Z,-1.00
2019-01-29T21:40:28.855Z,-0.90
2019-01-29T21:42:57.894Z,-0.90
2019-01-29T21:45:27.314Z,-0.90
2019-01-29T21:47:57.764Z,-0.90
2019-01-29T21:50:28.439Z,-0.90
2019-01-29T21:52:57.466Z,-1.00
2019-01-29T21:55:27.218Z,-1.00
2019-01-29T21:57:56.339Z,-0.80
2019-01-29T22:00:31.440Z,-0.60
2019-01-29T22:03:00.454Z,-0.70
2019-01-29T22:05:29.573Z,-0.70
2019-01-29T22:08:03.198Z,-0.80
2019-01-29T22:10:32.156Z,-0.80
2019-01-29T22:13:01.204Z,-0.80
2019-01-29T22:16:04.267Z,-0.90
2019-01-29T22:18:33.188Z,-1.00
2019-01-29T22:21:02.225Z,-0.90
2019-01-29T22:23:31.271Z,-1.00
2019-01-29T22:26:00.219Z,-1.00
2019-01-29T22:28:29.404Z,-1.10
2019-01-29T22:30:58.355Z,-1.10
2019-01-29T22:33:27.388Z,-1.30
2019-01-29T22:35:56.632Z,-1.20
2019-01-29T22:38:25.608Z,-1.20
2019-01-29T22:40:54.565Z,-1.20
2019-01-29T22:43:23.576Z,-1.30
2019-01-29T22:45:52.492Z,-1.40
2019-01-29T22:48:21.603Z,-1.30
2019-01-29T22:50:51.705Z,-1.20
2019-01-29T22:53:20.712Z,-1.40
2019-01-29T22:55:49.799Z,-1.40
2019-01-29T22:58:18.872Z,-1.30
2019-01-29T23:01:30.956Z,-1.30
2019-01-29T23:04:22.675Z,-1.30
2019-01-29T23:07:15.659Z,-1.30
2019-01-29T23:09:44.659Z,-1.30
2019-01-29T23:12:13.693Z,-1.30
2019-01-29T23:14:42.780Z,-1.10
2019-01-29T23:17:12.030Z,-1.20
2019-01-29T23:19:41.086Z,-1.20
2019-01-29T23:22:10.176Z,-1.20
2019-01-29T23:24:39.160Z,-1.20
2019-01-29T23:27:08.108Z,-1.10
2019-01-29T23:29:43.187Z,-1.10
2019-01-29T23:32:07.796Z,-1.10
2019-01-29T23:34:36.753Z,-1.10
2019-01-29T23:37:06.023Z,-1.00
2019-01-29T23:39:34.940Z,-1.00
2019-01-29T23:42:04.433Z,-1.10
2019-01-29T23:44:33.357Z,-1.10
2019-01-29T23:47:02.317Z,-1.00
2019-01-29T23:49:31.292Z,-0.90
2019-01-29T23:52:00.328Z,-1.00
2019-01-29T23:54:29.272Z,-1.00
2019-01-29T23:56:58.228Z,-1.10
2019-01-29T23:59:27.238Z,-1.10
